Archival Weather

Sydney Intl

Sydney, Australia (YSSY)

Report from: Saturday, March 18, 2023 1:00 AM AEDT
Current time: Monday, June 17, 2024 7:41 PM AEST

Current weather – Weather history – Daily summaries
Weather forecast

Temperature24.0°C (75.2°F)
Dew point20.0°C (68.0°F)
Winds 9 kts (4.6 m/s, 10.4 mph) North (10°)
Visibility6.2 mi. (10 km)
Clouds Few clouds 2,000 ft. (610 m)
Altimeter30.03 in.Hg (1017 mB)
Relative humidity78 %
Density altitude1,235 ft. (376 m)
Flight conditions Visual Meteorological Conditions
Raw dataYSSY 171400Z 01009KT 9999 FEW020 24/20 Q1017
An error has occurred. This application may no longer respond until reloaded. Reload 🗙